sensor_id;sensor_type;location;lat;lon;timestamp;pressure;altitude;pressure_sealevel;temperature;humidity
84775;BME280;75005;50.966;11.344;2024-01-30T00:01:50;100590.47;;;0.71;86.69
84775;BME280;75005;50.966;11.344;2024-01-30T00:04:19;100590.56;;;0.53;88.64
84775;BME280;75005;50.966;11.344;2024-01-30T00:06:45;100593.38;;;0.49;88.88
84775;BME280;75005;50.966;11.344;2024-01-30T00:09:10;100592.38;;;0.51;88.61
84775;BME280;75005;50.966;11.344;2024-01-30T00:11:39;100592.78;;;0.59;88.64
84775;BME280;75005;50.966;11.344;2024-01-30T00:14:05;100591.63;;;0.65;88.58
84775;BME280;75005;50.966;11.344;2024-01-30T00:16:30;100590.94;;;0.93;86.89
84775;BME280;75005;50.966;11.344;2024-01-30T00:18:56;100593.34;;;0.96;86.90
84775;BME280;75005;50.966;11.344;2024-01-30T00:21:22;100598.88;;;1.04;86.55
84775;BME280;75005;50.966;11.344;2024-01-30T00:23:47;100594.06;;;0.98;86.63
84775;BME280;75005;50.966;11.344;2024-01-30T00:26:13;100597.72;;;1.10;86.00
84775;BME280;75005;50.966;11.344;2024-01-30T00:28:43;100592.50;;;0.95;86.58
84775;BME280;75005;50.966;11.344;2024-01-30T00:31:09;100586.66;;;0.93;86.21
84775;BME280;75005;50.966;11.344;2024-01-30T00:33:40;100582.91;;;0.99;87.12
84775;BME280;75005;50.966;11.344;2024-01-30T00:36:08;100587.38;;;0.95;87.33
84775;BME280;75005;50.966;11.344;2024-01-30T00:38:33;100595.47;;;1.04;86.68
84775;BME280;75005;50.966;11.344;2024-01-30T00:41:01;100576.97;;;0.98;86.84
84775;BME280;75005;50.966;11.344;2024-01-30T00:43:27;100588.63;;;1.04;86.34
84775;BME280;75005;50.966;11.344;2024-01-30T00:45:53;100584.09;;;0.93;87.61
84775;BME280;75005;50.966;11.344;2024-01-30T00:48:19;100574.91;;;0.89;87.90
84775;BME280;75005;50.966;11.344;2024-01-30T00:50:44;100579.53;;;0.98;86.92
84775;BME280;75005;50.966;11.344;2024-01-30T00:53:10;100579.69;;;0.95;87.38
84775;BME280;75005;50.966;11.344;2024-01-30T00:55:36;100579.53;;;0.98;86.86
84775;BME280;75005;50.966;11.344;2024-01-30T00:58:01;100584.00;;;0.95;88.32
84775;BME280;75005;50.966;11.344;2024-01-30T01:00:27;100575.72;;;0.90;87.84
84775;BME280;75005;50.966;11.344;2024-01-30T01:02:55;100572.91;;;0.94;87.44
84775;BME280;75005;50.966;11.344;2024-01-30T01:05:20;100578.53;;;1.01;87.73
84775;BME280;75005;50.966;11.344;2024-01-30T01:07:46;100580.03;;;1.19;86.78
84775;BME280;75005;50.966;11.344;2024-01-30T01:10:13;100564.06;;;1.30;86.91
84775;BME280;75005;50.966;11.344;2024-01-30T01:12:39;100564.50;;;1.81;83.92
84775;BME280;75005;50.966;11.344;2024-01-30T01:15:05;100573.28;;;1.91;84.01
84775;BME280;75005;50.966;11.344;2024-01-30T01:17:31;100573.19;;;1.92;82.89
84775;BME280;75005;50.966;11.344;2024-01-30T01:19:57;100566.84;;;2.26;81.94
84775;BME280;75005;50.966;11.344;2024-01-30T01:22:22;100564.38;;;3.96;74.19
84775;BME280;75005;50.966;11.344;2024-01-30T01:24:48;100563.16;;;4.86;69.33
84775;BME280;75005;50.966;11.344;2024-01-30T01:27:13;100553.72;;;4.97;68.76
84775;BME280;75005;50.966;11.344;2024-01-30T01:29:38;100547.53;;;4.52;71.16
84775;BME280;75005;50.966;11.344;2024-01-30T01:32:04;100552.38;;;4.20;72.64
84775;BME280;75005;50.966;11.344;2024-01-30T01:34:30;100561.28;;;3.91;73.88
84775;BME280;75005;50.966;11.344;2024-01-30T01:36:55;100566.00;;;3.46;75.71
84775;BME280;75005;50.966;11.344;2024-01-30T01:39:24;100567.09;;;3.17;77.21
84775;BME280;75005;50.966;11.344;2024-01-30T01:41:50;100565.00;;;2.96;77.46
84775;BME280;75005;50.966;11.344;2024-01-30T01:44:15;100554.59;;;2.85;78.54
84775;BME280;75005;50.966;11.344;2024-01-30T01:46:41;100547.84;;;2.29;81.03
84775;BME280;75005;50.966;11.344;2024-01-30T01:49:06;100558.31;;;2.26;81.21
84775;BME280;75005;50.966;11.344;2024-01-30T01:51:34;100557.44;;;1.98;82.93
84775;BME280;75005;50.966;11.344;2024-01-30T01:54:03;100541.47;;;1.93;83.14
84775;BME280;75005;50.966;11.344;2024-01-30T01:56:30;100552.47;;;1.95;83.74
84775;BME280;75005;50.966;11.344;2024-01-30T01:59:00;100548.25;;;2.09;82.83
84775;BME280;75005;50.966;11.344;2024-01-30T02:01:26;100542.28;;;2.22;81.57
84775;BME280;75005;50.966;11.344;2024-01-30T02:03:52;100556.16;;;2.06;83.34
84775;BME280;75005;50.966;11.344;2024-01-30T02:06:18;100547.63;;;2.05;82.39
84775;BME280;75005;50.966;11.344;2024-01-30T02:08:44;100542.88;;;2.67;79.42
84775;BME280;75005;50.966;11.344;2024-01-30T02:11:10;100541.69;;;2.73;78.71
84775;BME280;75005;50.966;11.344;2024-01-30T02:13:36;100552.09;;;3.36;75.88
84775;BME280;75005;50.966;11.344;2024-01-30T02:16:02;100547.44;;;3.16;76.89
84775;BME280;75005;50.966;11.344;2024-01-30T02:18:27;100548.25;;;3.03;77.34
84775;BME280;75005;50.966;11.344;2024-01-30T02:20:54;100546.78;;;2.87;78.16
84775;BME280;75005;50.966;11.344;2024-01-30T02:23:24;100550.75;;;2.51;79.47
84775;BME280;75005;50.966;11.344;2024-01-30T02:25:53;100551.06;;;2.32;80.90
84775;BME280;75005;50.966;11.344;2024-01-30T02:28:19;100538.09;;;2.48;78.95
84775;BME280;75005;50.966;11.344;2024-01-30T02:30:45;100541.19;;;2.12;80.63
84775;BME280;75005;50.966;11.344;2024-01-30T02:33:12;100538.44;;;1.87;82.93
84775;BME280;75005;50.966;11.344;2024-01-30T02:35:37;100541.75;;;1.60;83.99
84775;BME280;75005;50.966;11.344;2024-01-30T02:38:03;100532.31;;;1.61;83.64
84775;BME280;75005;50.966;11.344;2024-01-30T02:40:28;100539.22;;;1.75;83.00
84775;BME280;75005;50.966;11.344;2024-01-30T02:42:54;100530.28;;;1.52;83.87
84775;BME280;75005;50.966;11.344;2024-01-30T02:45:19;100534.97;;;1.88;82.37
84775;BME280;75005;50.966;11.344;2024-01-30T02:47:45;100534.88;;;1.89;81.84
84775;BME280;75005;50.966;11.344;2024-01-30T02:50:11;100545.59;;;1.96;80.70
84775;BME280;75005;50.966;11.344;2024-01-30T02:52:36;100538.63;;;1.98;80.13
84775;BME280;75005;50.966;11.344;2024-01-30T02:55:02;100530.66;;;1.88;81.46
84775;BME280;75005;50.966;11.344;2024-01-30T02:57:29;100533.91;;;1.78;82.59
84775;BME280;75005;50.966;11.344;2024-01-30T02:59:54;100533.16;;;1.61;83.49
84775;BME280;75005;50.966;11.344;2024-01-30T03:02:20;100535.72;;;1.47;83.28
84775;BME280;75005;50.966;11.344;2024-01-30T03:04:45;100528.19;;;1.58;82.08
84775;BME280;75005;50.966;11.344;2024-01-30T03:07:10;100524.53;;;1.62;82.51
84775;BME280;75005;50.966;11.344;2024-01-30T03:09:36;100519.88;;;1.69;81.39
84775;BME280;75005;50.966;11.344;2024-01-30T03:12:02;100529.75;;;1.75;81.10
84775;BME280;75005;50.966;11.344;2024-01-30T03:14:31;100521.59;;;1.54;82.45
84775;BME280;75005;50.966;11.344;2024-01-30T03:16:57;100517.13;;;1.44;83.44
84775;BME280;75005;50.966;11.344;2024-01-30T03:19:22;100517.94;;;1.44;82.42
84775;BME280;75005;50.966;11.344;2024-01-30T03:21:48;100513.16;;;1.38;83.69
84775;BME280;75005;50.966;11.344;2024-01-30T03:24:13;100514.91;;;1.38;85.24
84775;BME280;75005;50.966;11.344;2024-01-30T03:26:38;100506.38;;;1.37;84.90
84775;BME280;75005;50.966;11.344;2024-01-30T03:29:04;100509.34;;;1.15;85.23
84775;BME280;75005;50.966;11.344;2024-01-30T03:31:29;100508.91;;;1.09;85.78
84775;BME280;75005;50.966;11.344;2024-01-30T03:33:55;100501.22;;;1.23;84.35
84775;BME280;75005;50.966;11.344;2024-01-30T03:36:20;100499.38;;;1.11;86.82
84775;BME280;75005;50.966;11.344;2024-01-30T03:38:45;100515.13;;;1.05;86.80
84775;BME280;75005;50.966;11.344;2024-01-30T03:41:11;100503.16;;;0.89;86.38
84775;BME280;75005;50.966;11.344;2024-01-30T03:43:36;100506.41;;;0.77;87.48
84775;BME280;75005;50.966;11.344;2024-01-30T03:46:02;100508.69;;;0.68;87.07
84775;BME280;75005;50.966;11.344;2024-01-30T03:48:28;100503.47;;;0.69;86.52
84775;BME280;75005;50.966;11.344;2024-01-30T03:50:54;100503.16;;;0.59;87.61
84775;BME280;75005;50.966;11.344;2024-01-30T03:53:20;100498.38;;;0.53;88.18
84775;BME280;75005;50.966;11.344;2024-01-30T03:55:45;100494.78;;;0.72;86.79
84775;BME280;75005;50.966;11.344;2024-01-30T03:58:11;100503.16;;;0.89;85.61
84775;BME280;75005;50.966;11.344;2024-01-30T04:00:36;100487.09;;;0.72;86.13
84775;BME280;75005;50.966;11.344;2024-01-30T04:03:02;100486.91;;;0.75;86.84
84775;BME280;75005;50.966;11.344;2024-01-30T04:05:27;100487.47;;;0.50;87.26
84775;BME280;75005;50.966;11.344;2024-01-30T04:07:52;100486.22;;;0.41;86.82
84775;BME280;75005;50.966;11.344;2024-01-30T04:10:18;100488.78;;;0.57;87.06
84775;BME280;75005;50.966;11.344;2024-01-30T04:12:43;100501.09;;;0.66;86.58
84775;BME280;75005;50.966;11.344;2024-01-30T04:15:09;100495.78;;;0.69;86.35
84775;BME280;75005;50.966;11.344;2024-01-30T04:17:34;100503.22;;;0.74;85.23
84775;BME280;75005;50.966;11.344;2024-01-30T04:20:00;100506.81;;;0.85;85.65
84775;BME280;75005;50.966;11.344;2024-01-30T04:22:25;100509.16;;;1.04;84.20
84775;BME280;75005;50.966;11.344;2024-01-30T04:24:50;100516.28;;;0.99;83.31
84775;BME280;75005;50.966;11.344;2024-01-30T04:27:16;100513.06;;;0.95;82.81
84775;BME280;75005;50.966;11.344;2024-01-30T04:29:41;100514.41;;;0.87;84.75
84775;BME280;75005;50.966;11.344;2024-01-30T04:32:07;100515.88;;;0.61;85.54
84775;BME280;75005;50.966;11.344;2024-01-30T04:34:32;100517.28;;;0.51;85.98
84775;BME280;75005;50.966;11.344;2024-01-30T04:36:59;100506.06;;;0.38;87.11
84775;BME280;75005;50.966;11.344;2024-01-30T04:39:24;100516.94;;;0.41;86.37
84775;BME280;75005;50.966;11.344;2024-01-30T04:41:49;100517.13;;;0.54;85.26
84775;BME280;75005;50.966;11.344;2024-01-30T04:44:15;100508.69;;;1.12;82.58
84775;BME280;75005;50.966;11.344;2024-01-30T04:46:40;100504.13;;;1.03;83.21
84775;BME280;75005;50.966;11.344;2024-01-30T04:49:06;100507.59;;;1.02;83.09
84775;BME280;75005;50.966;11.344;2024-01-30T04:51:33;100485.31;;;1.60;78.63
84775;BME280;75005;50.966;11.344;2024-01-30T04:53:58;100494.31;;;1.67;79.10
84775;BME280;75005;50.966;11.344;2024-01-30T04:56:24;100487.59;;;1.51;81.05
84775;BME280;75005;50.966;11.344;2024-01-30T04:58:49;100485.13;;;1.35;80.53
84775;BME280;75005;50.966;11.344;2024-01-30T05:01:18;100493.28;;;1.42;81.14
84775;BME280;75005;50.966;11.344;2024-01-30T05:03:43;100491.28;;;1.47;80.00
84775;BME280;75005;50.966;11.344;2024-01-30T05:06:08;100488.50;;;1.07;80.87
84775;BME280;75005;50.966;11.344;2024-01-30T05:08:34;100485.91;;;0.77;84.15
84775;BME280;75005;50.966;11.344;2024-01-30T05:11:02;100493.44;;;1.10;82.30
84775;BME280;75005;50.966;11.344;2024-01-30T05:13:30;100502.69;;;1.27;81.80
84775;BME280;75005;50.966;11.344;2024-01-30T05:15:55;100500.31;;;1.24;80.05
84775;BME280;75005;50.966;11.344;2024-01-30T05:18:21;100493.13;;;1.00;81.63
84775;BME280;75005;50.966;11.344;2024-01-30T05:20:46;100492.56;;;0.95;83.10
84775;BME280;75005;50.966;11.344;2024-01-30T05:23:11;100487.66;;;1.07;82.28
84775;BME280;75005;50.966;11.344;2024-01-30T05:25:37;100486.28;;;0.71;82.48
84775;BME280;75005;50.966;11.344;2024-01-30T05:28:02;100479.88;;;0.48;83.58
84775;BME280;75005;50.966;11.344;2024-01-30T05:30:28;100493.53;;;0.33;84.78
84775;BME280;75005;50.966;11.344;2024-01-30T05:32:53;100491.38;;;0.25;85.16
84775;BME280;75005;50.966;11.344;2024-01-30T05:35:19;100488.13;;;0.38;85.90
84775;BME280;75005;50.966;11.344;2024-01-30T05:37:47;100498.28;;;0.55;84.12
84775;BME280;75005;50.966;11.344;2024-01-30T05:40:13;100494.81;;;0.56;85.47
84775;BME280;75005;50.966;11.344;2024-01-30T05:42:38;100501.25;;;0.63;84.93
84775;BME280;75005;50.966;11.344;2024-01-30T05:45:04;100497.72;;;0.50;85.38
84775;BME280;75005;50.966;11.344;2024-01-30T05:47:30;100500.84;;;0.39;85.44
84775;BME280;75005;50.966;11.344;2024-01-30T05:49:56;100501.22;;;0.33;85.84
84775;BME280;75005;50.966;11.344;2024-01-30T05:52:21;100505.00;;;0.26;85.71
84775;BME280;75005;50.966;11.344;2024-01-30T05:54:46;100505.41;;;0.18;85.44
84775;BME280;75005;50.966;11.344;2024-01-30T05:57:12;100511.75;;;0.11;86.11
84775;BME280;75005;50.966;11.344;2024-01-30T05:59:37;100509.13;;;0.13;86.97
84775;BME280;75005;50.966;11.344;2024-01-30T06:02:03;100507.88;;;0.04;86.25
84775;BME280;75005;50.966;11.344;2024-01-30T06:04:28;100504.91;;;0.12;85.97
84775;BME280;75005;50.966;11.344;2024-01-30T06:06:53;100508.72;;;0.20;86.00
84775;BME280;75005;50.966;11.344;2024-01-30T06:09:19;100500.22;;;0.20;86.09
84775;BME280;75005;50.966;11.344;2024-01-30T06:11:44;100500.28;;;0.18;86.24
84775;BME280;75005;50.966;11.344;2024-01-30T06:14:10;100503.84;;;0.16;85.98
84775;BME280;75005;50.966;11.344;2024-01-30T06:16:35;100494.75;;;0.26;86.07
84775;BME280;75005;50.966;11.344;2024-01-30T06:19:01;100492.22;;;0.26;86.57
84775;BME280;75005;50.966;11.344;2024-01-30T06:21:26;100492.22;;;0.26;86.86
84775;BME280;75005;50.966;11.344;2024-01-30T06:23:52;100496.97;;;0.48;85.38
84775;BME280;75005;50.966;11.344;2024-01-30T06:26:17;100479.09;;;0.62;84.44
84775;BME280;75005;50.966;11.344;2024-01-30T06:28:42;100480.09;;;0.59;84.37
84775;BME280;75005;50.966;11.344;2024-01-30T06:31:09;100482.81;;;0.72;84.66
84775;BME280;75005;50.966;11.344;2024-01-30T06:33:35;100476.66;;;1.05;82.63
84775;BME280;75005;50.966;11.344;2024-01-30T06:36:00;100480.31;;;1.00;82.45
84775;BME280;75005;50.966;11.344;2024-01-30T06:38:25;100485.53;;;0.69;84.07
84775;BME280;75005;50.966;11.344;2024-01-30T06:40:51;100480.34;;;0.71;83.85
84775;BME280;75005;50.966;11.344;2024-01-30T06:43:16;100480.19;;;0.88;81.81
84775;BME280;75005;50.966;11.344;2024-01-30T06:45:42;100481.56;;;0.93;83.00
84775;BME280;75005;50.966;11.344;2024-01-30T06:48:08;100490.00;;;0.95;82.45
84775;BME280;75005;50.966;11.344;2024-01-30T06:50:36;100488.84;;;0.71;84.28
84775;BME280;75005;50.966;11.344;2024-01-30T06:53:01;100487.47;;;0.80;84.32
84775;BME280;75005;50.966;11.344;2024-01-30T06:55:27;100488.19;;;0.68;83.23
84775;BME280;75005;50.966;11.344;2024-01-30T06:57:52;100486.06;;;0.60;84.22
84775;BME280;75005;50.966;11.344;2024-01-30T07:00:21;100488.31;;;0.80;83.13
84775;BME280;75005;50.966;11.344;2024-01-30T07:02:48;100488.31;;;0.80;84.96
84775;BME280;75005;50.966;11.344;2024-01-30T07:05:14;100485.47;;;0.71;84.81
84775;BME280;75005;50.966;11.344;2024-01-30T07:07:40;100489.31;;;0.78;84.88
84775;BME280;75005;50.966;11.344;2024-01-30T07:10:06;100478.59;;;1.01;81.83
84775;BME280;75005;50.966;11.344;2024-01-30T07:12:32;100497.88;;;0.92;82.70
84775;BME280;75005;50.966;11.344;2024-01-30T07:14:57;100486.22;;;0.87;82.74
84775;BME280;75005;50.966;11.344;2024-01-30T07:17:24;100495.00;;;0.83;82.89
84775;BME280;75005;50.966;11.344;2024-01-30T07:19:50;100496.38;;;0.74;84.09
84775;BME280;75005;50.966;11.344;2024-01-30T07:22:15;100500.38;;;0.78;84.27
84775;BME280;75005;50.966;11.344;2024-01-30T07:24:44;100492.78;;;0.77;84.29
84775;BME280;75005;50.966;11.344;2024-01-30T07:27:14;100488.47;;;0.77;84.33
84775;BME280;75005;50.966;11.344;2024-01-30T07:29:41;100475.94;;;1.17;80.71
84775;BME280;75005;50.966;11.344;2024-01-30T07:32:06;100498.50;;;1.40;80.08
84775;BME280;75005;50.966;11.344;2024-01-30T07:34:31;100493.81;;;1.89;77.82
84775;BME280;75005;50.966;11.344;2024-01-30T07:36:57;100500.16;;;1.70;80.68
84775;BME280;75005;50.966;11.344;2024-01-30T07:39:22;100497.25;;;1.47;81.60
84775;BME280;75005;50.966;11.344;2024-01-30T07:41:48;100502.53;;;1.30;83.46
84775;BME280;75005;50.966;11.344;2024-01-30T07:44:13;100490.81;;;1.54;86.35
84775;BME280;75005;50.966;11.344;2024-01-30T07:46:39;100495.75;;;1.29;83.48
84775;BME280;75005;50.966;11.344;2024-01-30T07:49:04;100498.22;;;1.30;83.27
84775;BME280;75005;50.966;11.344;2024-01-30T07:51:29;100507.44;;;1.19;83.56
84775;BME280;75005;50.966;11.344;2024-01-30T07:53:57;100489.66;;;1.16;83.42
84775;BME280;75005;50.966;11.344;2024-01-30T07:56:22;100493.97;;;1.15;84.49
84775;BME280;75005;50.966;11.344;2024-01-30T07:58:47;100492.78;;;1.21;84.35
84775;BME280;75005;50.966;11.344;2024-01-30T08:01:15;100503.44;;;1.29;84.38
84775;BME280;75005;50.966;11.344;2024-01-30T08:03:40;100497.03;;;1.36;83.65
84775;BME280;75005;50.966;11.344;2024-01-30T08:06:07;100504.38;;;1.56;83.25
84775;BME280;75005;50.966;11.344;2024-01-30T08:08:32;100507.59;;;1.74;82.30
84775;BME280;75005;50.966;11.344;2024-01-30T08:10:58;100503.34;;;2.01;81.28
84775;BME280;75005;50.966;11.344;2024-01-30T08:13:23;100498.19;;;2.16;80.56
84775;BME280;75005;50.966;11.344;2024-01-30T08:15:48;100501.34;;;2.33;79.16
84775;BME280;75005;50.966;11.344;2024-01-30T08:18:14;100496.59;;;2.54;78.33
84775;BME280;75005;50.966;11.344;2024-01-30T08:20:39;100508.03;;;2.63;79.83
84775;BME280;75005;50.966;11.344;2024-01-30T08:23:05;100499.50;;;2.62;81.05
84775;BME280;75005;50.966;11.344;2024-01-30T08:25:30;100499.81;;;2.58;80.07
84775;BME280;75005;50.966;11.344;2024-01-30T08:27:55;100495.72;;;2.68;80.11
84775;BME280;75005;50.966;11.344;2024-01-30T08:30:22;100497.34;;;2.56;80.01
84775;BME280;75005;50.966;11.344;2024-01-30T08:32:47;100496.16;;;2.75;77.74
84775;BME280;75005;50.966;11.344;2024-01-30T08:35:13;100487.34;;;2.91;77.12
84775;BME280;75005;50.966;11.344;2024-01-30T08:37:40;100490.44;;;2.96;78.38
84775;BME280;75005;50.966;11.344;2024-01-30T08:40:07;100482.59;;;2.85;79.06
84775;BME280;75005;50.966;11.344;2024-01-30T08:42:36;100486.44;;;2.92;78.95
84775;BME280;75005;50.966;11.344;2024-01-30T08:45:01;100484.78;;;3.04;77.60
84775;BME280;75005;50.966;11.344;2024-01-30T08:47:27;100482.25;;;3.17;77.71
84775;BME280;75005;50.966;11.344;2024-01-30T08:49:53;100476.91;;;3.32;77.41
84775;BME280;75005;50.966;11.344;2024-01-30T08:52:18;100476.50;;;3.26;79.04
84775;BME280;75005;50.966;11.344;2024-01-30T08:54:43;100471.84;;;3.31;76.74
84775;BME280;75005;50.966;11.344;2024-01-30T08:57:09;100477.81;;;3.57;77.17
84775;BME280;75005;50.966;11.344;2024-01-30T08:59:34;100461.53;;;3.69;76.24
84775;BME280;75005;50.966;11.344;2024-01-30T09:02:00;100470.13;;;3.81;74.32
84775;BME280;75005;50.966;11.344;2024-01-30T09:04:25;100467.03;;;4.01;72.96
84775;BME280;75005;50.966;11.344;2024-01-30T09:06:51;100475.56;;;4.01;75.86
84775;BME280;75005;50.966;11.344;2024-01-30T09:09:16;100474.78;;;4.12;75.17
84775;BME280;75005;50.966;11.344;2024-01-30T09:11:43;100467.44;;;4.31;73.52
84775;BME280;75005;50.966;11.344;2024-01-30T09:14:08;100483.88;;;4.42;72.37
84775;BME280;75005;50.966;11.344;2024-01-30T09:16:34;100468.88;;;4.47;72.43
84775;BME280;75005;50.966;11.344;2024-01-30T09:18:59;100465.94;;;4.40;72.79
84775;BME280;75005;50.966;11.344;2024-01-30T09:21:24;100474.66;;;4.50;71.90
84775;BME280;75005;50.966;11.344;2024-01-30T09:23:50;100470.38;;;4.62;72.57
84775;BME280;75005;50.966;11.344;2024-01-30T09:26:15;100470.91;;;4.78;71.83
84775;BME280;75005;50.966;11.344;2024-01-30T09:28:41;100470.31;;;4.86;71.02
84775;BME280;75005;50.966;11.344;2024-01-30T09:31:14;100472.13;;;4.96;71.69
84775;BME280;75005;50.966;11.344;2024-01-30T09:33:39;100469.66;;;4.95;71.78
84775;BME280;75005;50.966;11.344;2024-01-30T09:36:05;100457.13;;;5.01;71.91
84775;BME280;75005;50.966;11.344;2024-01-30T09:38:30;100456.22;;;5.14;71.74
84775;BME280;75005;50.966;11.344;2024-01-30T09:41:01;100458.34;;;5.20;72.02
84775;BME280;75005;50.966;11.344;2024-01-30T09:43:32;100458.94;;;5.34;70.73
84775;BME280;75005;50.966;11.344;2024-01-30T09:45:59;100458.34;;;5.42;72.31
84775;BME280;75005;50.966;11.344;2024-01-30T09:48:26;100462.47;;;5.56;71.19
84775;BME280;75005;50.966;11.344;2024-01-30T09:50:52;100456.34;;;5.68;70.35
84775;BME280;75005;50.966;11.344;2024-01-30T09:53:19;100454.13;;;5.86;70.02
84775;BME280;75005;50.966;11.344;2024-01-30T09:55:45;100466.31;;;5.95;70.56
84775;BME280;75005;50.966;11.344;2024-01-30T09:58:12;100455.03;;;6.07;70.17
84775;BME280;75005;50.966;11.344;2024-01-30T10:00:37;100455.97;;;6.17;70.59
84775;BME280;75005;50.966;11.344;2024-01-30T10:03:03;100458.94;;;6.45;69.82
84775;BME280;75005;50.966;11.344;2024-01-30T10:05:31;100458.56;;;6.70;68.89
84775;BME280;75005;50.966;11.344;2024-01-30T10:07:58;100461.16;;;6.70;70.77
84775;BME280;75005;50.966;11.344;2024-01-30T10:10:24;100457.47;;;6.84;69.02
84775;BME280;75005;50.966;11.344;2024-01-30T10:12:50;100454.22;;;7.12;68.21
84775;BME280;75005;50.966;11.344;2024-01-30T10:15:15;100455.03;;;7.33;67.04
84775;BME280;75005;50.966;11.344;2024-01-30T10:17:42;100445.38;;;7.66;66.89
84775;BME280;75005;50.966;11.344;2024-01-30T10:20:08;100447.06;;;7.86;65.10
84775;BME280;75005;50.966;11.344;2024-01-30T10:22:33;100446.03;;;8.08;65.00
84775;BME280;75005;50.966;11.344;2024-01-30T10:25:00;100439.81;;;8.40;64.84
84775;BME280;75005;50.966;11.344;2024-01-30T10:27:26;100444.72;;;8.62;63.91
84775;BME280;75005;50.966;11.344;2024-01-30T10:29:52;100436.25;;;8.79;64.51
84775;BME280;75005;50.966;11.344;2024-01-30T10:32:17;100435.09;;;9.01;63.44
84775;BME280;75005;50.966;11.344;2024-01-30T10:34:43;100429.59;;;9.14;63.79
84775;BME280;75005;50.966;11.344;2024-01-30T10:37:10;100420.72;;;9.16;63.34
84775;BME280;75005;50.966;11.344;2024-01-30T10:39:39;100426.44;;;9.20;63.66
84775;BME280;75005;50.966;11.344;2024-01-30T10:42:06;100427.84;;;9.14;64.57
84775;BME280;75005;50.966;11.344;2024-01-30T10:44:37;100421.13;;;9.21;63.43
84775;BME280;75005;50.966;11.344;2024-01-30T10:47:06;100420.16;;;9.22;63.44
84775;BME280;75005;50.966;11.344;2024-01-30T10:49:36;100409.84;;;9.30;62.83
84775;BME280;75005;50.966;11.344;2024-01-30T10:52:03;100417.44;;;9.51;63.25
84775;BME280;75005;50.966;11.344;2024-01-30T10:54:31;100414.41;;;9.56;62.84
84775;BME280;75005;50.966;11.344;2024-01-30T10:56:59;100420.53;;;9.64;63.25
84775;BME280;75005;50.966;11.344;2024-01-30T10:59:27;100428.47;;;9.63;63.44
84775;BME280;75005;50.966;11.344;2024-01-30T11:01:53;100422.81;;;9.67;62.97
84775;BME280;75005;50.966;11.344;2024-01-30T11:04:19;100420.31;;;9.76;62.36
84775;BME280;75005;50.966;11.344;2024-01-30T11:06:44;100430.09;;;9.91;61.87
84775;BME280;75005;50.966;11.344;2024-01-30T11:09:12;100427.06;;;9.96;62.38
84775;BME280;75005;50.966;11.344;2024-01-30T11:11:55;100428.09;;;10.03;63.32
84775;BME280;75005;50.966;11.344;2024-01-30T11:14:25;100429.13;;;10.10;62.02
84775;BME280;75005;50.966;11.344;2024-01-30T11:16:51;100423.31;;;10.26;60.80
84775;BME280;75005;50.966;11.344;2024-01-30T11:19:22;100418.19;;;10.52;61.14
84775;BME280;75005;50.966;11.344;2024-01-30T11:21:50;100412.75;;;10.63;60.33
84775;BME280;75005;50.966;11.344;2024-01-30T11:24:19;100412.28;;;10.67;60.63
84775;BME280;75005;50.966;11.344;2024-01-30T11:26:44;100407.22;;;10.66;60.32
84775;BME280;75005;50.966;11.344;2024-01-30T11:29:13;100406.50;;;10.56;60.99
84775;BME280;75005;50.966;11.344;2024-01-30T11:31:38;100405.00;;;10.53;60.92
84775;BME280;75005;50.966;11.344;2024-01-30T11:34:04;100397.72;;;10.57;60.82
84775;BME280;75005;50.966;11.344;2024-01-30T11:36:31;100391.97;;;10.71;60.93
84775;BME280;75005;50.966;11.344;2024-01-30T11:38:59;100398.09;;;10.62;60.91
84775;BME280;75005;50.966;11.344;2024-01-30T11:41:25;100400.47;;;10.73;61.25
84775;BME280;75005;50.966;11.344;2024-01-30T11:43:53;100401.59;;;10.79;60.98
84775;BME280;75005;50.966;11.344;2024-01-30T11:46:19;100395.91;;;10.75;60.88
84775;BME280;75005;50.966;11.344;2024-01-30T11:48:45;100397.88;;;10.81;60.93
84775;BME280;75005;50.966;11.344;2024-01-30T11:51:12;100382.84;;;10.93;60.98
84775;BME280;75005;50.966;11.344;2024-01-30T11:53:38;100382.75;;;11.02;60.48
84775;BME280;75005;50.966;11.344;2024-01-30T11:56:06;100375.91;;;11.01;60.46
84775;BME280;75005;50.966;11.344;2024-01-30T11:58:31;100384.00;;;10.98;60.30
84775;BME280;75005;50.966;11.344;2024-01-30T12:00:57;100379.22;;;11.12;60.59
84775;BME280;75005;50.966;11.344;2024-01-30T12:03:23;100374.00;;;11.12;60.63
84775;BME280;75005;50.966;11.344;2024-01-30T12:05:55;100375.03;;;11.27;60.53
84775;BME280;75005;50.966;11.344;2024-01-30T12:08:21;100378.66;;;11.34;60.07
84775;BME280;75005;50.966;11.344;2024-01-30T12:10:55;100379.47;;;11.34;60.00
84775;BME280;75005;50.966;11.344;2024-01-30T12:13:21;100385.09;;;11.14;60.06
84775;BME280;75005;50.966;11.344;2024-01-30T12:15:47;100379.22;;;11.12;60.33
84775;BME280;75005;50.966;11.344;2024-01-30T12:18:12;100378.88;;;11.15;60.74
84775;BME280;75005;50.966;11.344;2024-01-30T12:20:37;100371.25;;;11.21;60.93
84775;BME280;75005;50.966;11.344;2024-01-30T12:23:03;100369.59;;;11.12;60.78
84775;BME280;75005;50.966;11.344;2024-01-30T12:25:29;100378.56;;;11.18;60.79
84775;BME280;75005;50.966;11.344;2024-01-30T12:27:54;100371.00;;;11.32;60.37
84775;BME280;75005;50.966;11.344;2024-01-30T12:30:20;100361.78;;;11.46;60.10
84775;BME280;75005;50.966;11.344;2024-01-30T12:32:49;100359.69;;;11.66;59.25
84775;BME280;75005;50.966;11.344;2024-01-30T12:35:18;100353.94;;;11.54;59.43
84775;BME280;75005;50.966;11.344;2024-01-30T12:37:45;100355.66;;;11.71;59.19
84775;BME280;75005;50.966;11.344;2024-01-30T12:40:12;100347.47;;;11.66;58.83
84775;BME280;75005;50.966;11.344;2024-01-30T12:42:40;100355.47;;;11.73;59.36